createdAt,value
2018-03-02T00:00:10.170Z,10.50
2018-03-02T00:02:38.518Z,10.18
2018-03-02T00:05:06.866Z,9.93
2018-03-02T00:07:35.245Z,9.95
2018-03-02T00:10:03.676Z,10.98
2018-03-02T00:12:31.977Z,10.70
2018-03-02T00:15:00.341Z,9.40
2018-03-02T00:17:28.691Z,10.30
2018-03-02T00:19:57.018Z,9.90
2018-03-02T00:22:25.361Z,8.60
2018-03-02T00:24:53.786Z,9.20
2018-03-02T00:27:22.130Z,8.43
2018-03-02T00:29:50.546Z,11.73
2018-03-02T00:32:18.925Z,8.05
2018-03-02T00:34:47.294Z,10.05
2018-03-02T00:37:15.670Z,9.15
2018-03-02T00:39:43.999Z,9.90
2018-03-02T00:42:12.349Z,10.15
2018-03-02T00:44:40.678Z,9.88
2018-03-02T00:47:09.030Z,9.77
2018-03-02T00:49:37.359Z,8.10
2018-03-02T00:52:05.706Z,11.57
2018-03-02T00:54:34.036Z,10.70
2018-03-02T00:57:02.495Z,10.95
2018-03-02T00:59:30.861Z,8.73
2018-03-02T01:01:59.240Z,10.25
2018-03-02T01:04:27.622Z,10.02
2018-03-02T01:06:55.993Z,10.35
2018-03-02T01:09:24.329Z,10.27
2018-03-02T01:11:52.671Z,9.95
2018-03-02T01:14:20.997Z,10.75
2018-03-02T01:16:49.349Z,9.15
2018-03-02T01:19:17.670Z,11.10
2018-03-02T01:21:46.054Z,8.10
2018-03-02T01:24:14.386Z,10.50
2018-03-02T01:26:42.735Z,11.15
2018-03-02T01:29:11.058Z,8.63
2018-03-02T01:31:39.405Z,9.23
2018-03-02T01:34:07.734Z,11.25
2018-03-02T01:36:36.114Z,8.88
2018-03-02T01:39:04.494Z,10.88
2018-03-02T01:41:32.864Z,10.60
2018-03-02T01:44:01.214Z,8.98
2018-03-02T01:46:29.617Z,11.30
2018-03-02T01:48:57.965Z,11.95
2018-03-02T01:51:38.358Z,12.68
2018-03-02T01:54:06.710Z,10.05
2018-03-02T01:56:35.110Z,10.48
2018-03-02T01:59:03.492Z,10.82
2018-03-02T02:01:31.833Z,11.27
2018-03-02T02:04:00.191Z,11.23
2018-03-02T02:06:28.622Z,10.77
2018-03-02T02:08:56.973Z,11.05
2018-03-02T02:11:25.377Z,11.43
2018-03-02T02:13:53.727Z,10.48
2018-03-02T02:16:22.073Z,11.95
2018-03-02T02:18:50.506Z,9.70
2018-03-02T02:21:18.882Z,11.88
2018-03-02T02:23:47.238Z,11.50
2018-03-02T02:26:15.578Z,11.25
2018-03-02T02:28:43.961Z,12.02
2018-03-02T02:31:12.394Z,10.75
2018-03-02T02:33:40.738Z,11.30
2018-03-02T02:36:09.070Z,12.50
2018-03-02T02:38:37.522Z,12.13
2018-03-02T02:41:05.899Z,10.18
2018-03-02T02:43:34.251Z,12.70
2018-03-02T02:46:02.586Z,12.40
2018-03-02T02:48:30.936Z,12.98
2018-03-02T02:50:59.270Z,12.52
2018-03-02T02:53:27.622Z,11.93
2018-03-02T02:55:55.962Z,13.00
2018-03-02T02:58:24.356Z,13.15
2018-03-02T03:00:52.713Z,13.20
2018-03-02T03:03:21.095Z,13.38
2018-03-02T03:05:49.414Z,13.05
2018-03-02T03:08:17.761Z,10.65
2018-03-02T03:10:46.082Z,12.82
2018-03-02T03:13:14.426Z,11.50
2018-03-02T03:15:42.748Z,13.30
2018-03-02T03:18:11.154Z,12.82
2018-03-02T03:20:39.533Z,13.80
2018-03-02T03:23:07.869Z,11.45
2018-03-02T03:25:36.194Z,13.27
2018-03-02T03:28:04.534Z,11.95
2018-03-02T03:30:32.858Z,11.55
2018-03-02T03:33:01.203Z,13.73
2018-03-02T03:35:29.590Z,12.18
2018-03-02T03:37:57.970Z,13.73
2018-03-02T03:40:26.350Z,12.70
2018-03-02T03:42:54.689Z,12.68
2018-03-02T03:45:23.012Z,12.93
2018-03-02T03:47:51.366Z,12.50
2018-03-02T03:50:19.749Z,12.25
2018-03-02T03:52:48.130Z,13.13
2018-03-02T03:55:16.508Z,14.57
2018-03-02T03:57:44.830Z,12.02
2018-03-02T04:00:13.261Z,11.77
2018-03-02T04:02:41.581Z,10.75
2018-03-02T04:05:10.013Z,11.50
2018-03-02T04:07:38.389Z,13.38
2018-03-02T04:10:06.739Z,14.40
2018-03-02T04:12:35.068Z,12.15
2018-03-02T04:15:03.424Z,11.20
2018-03-02T04:17:31.797Z,12.50
2018-03-02T04:20:00.381Z,10.32
2018-03-02T04:22:28.798Z,12.10
2018-03-02T04:24:57.237Z,14.15
2018-03-02T04:27:25.617Z,12.20
2018-03-02T04:29:53.961Z,13.25
2018-03-02T04:32:22.285Z,9.60
2018-03-02T04:34:50.629Z,13.50
2018-03-02T04:37:18.954Z,12.70
2018-03-02T04:39:47.403Z,13.00
2018-03-02T04:42:15.794Z,13.23
2018-03-02T04:44:44.150Z,12.48
2018-03-02T04:47:12.485Z,14.43
2018-03-02T04:49:40.913Z,12.75
2018-03-02T04:52:09.244Z,14.35
2018-03-02T04:54:37.666Z,13.90
2018-03-02T04:57:06.005Z,12.48
2018-03-02T04:59:34.397Z,11.60
2018-03-02T05:02:02.722Z,12.32
2018-03-02T05:04:31.094Z,14.85
2018-03-02T05:06:59.450Z,14.82
2018-03-02T05:09:27.829Z,15.80
2018-03-02T05:11:56.156Z,14.75
2018-03-02T05:14:24.499Z,13.50
2018-03-02T05:16:52.853Z,12.30
2018-03-02T05:19:21.234Z,11.82
2018-03-02T05:21:49.665Z,12.65
2018-03-02T05:24:18.098Z,14.85
2018-03-02T05:26:46.415Z,13.07
2018-03-02T05:29:14.757Z,13.23
2018-03-02T05:31:43.119Z,12.98
2018-03-02T05:34:11.462Z,13.95
2018-03-02T05:36:40.257Z,13.37
2018-03-02T05:39:09.233Z,16.70
2018-03-02T05:41:37.555Z,14.33
2018-03-02T05:44:05.902Z,13.40
2018-03-02T05:46:34.258Z,14.00
2018-03-02T05:49:02.682Z,14.35
2018-03-02T05:51:31.022Z,15.20
2018-03-02T05:53:59.388Z,13.57
2018-03-02T05:56:27.815Z,14.20
2018-03-02T05:58:56.197Z,11.37
2018-03-02T06:01:24.550Z,14.70
2018-03-02T06:03:52.947Z,12.57
2018-03-02T06:06:21.304Z,11.90
2018-03-02T06:08:49.630Z,12.63
2018-03-02T06:11:17.982Z,13.03
2018-03-02T06:13:46.359Z,15.38
2018-03-02T06:16:15.629Z,14.07
2018-03-02T06:18:43.963Z,12.67
2018-03-02T06:21:12.378Z,13.53
2018-03-02T06:23:40.870Z,13.93
2018-03-02T06:26:09.337Z,12.87
2018-03-02T06:28:37.667Z,12.88
2018-03-02T06:31:06.149Z,11.33
2018-03-02T06:33:34.476Z,13.60
2018-03-02T06:36:02.886Z,11.23
2018-03-02T06:38:31.222Z,11.17
2018-03-02T06:40:59.577Z,13.05
2018-03-02T06:43:29.763Z,11.23
2018-03-02T06:45:58.788Z,14.73
2018-03-02T06:48:27.102Z,13.27
2018-03-02T06:50:55.494Z,13.68
2018-03-02T06:53:23.823Z,10.80
2018-03-02T06:55:52.194Z,13.93
2018-03-02T06:58:20.766Z,15.10
2018-03-02T07:00:49.118Z,15.97
2018-03-02T07:03:17.441Z,15.50
2018-03-02T07:05:45.794Z,16.30
2018-03-02T07:08:14.122Z,14.93
2018-03-02T07:10:42.518Z,13.23
2018-03-02T07:13:10.958Z,13.07
2018-03-02T07:15:39.373Z,14.53
2018-03-02T07:18:08.362Z,12.17
2018-03-02T07:20:36.738Z,16.70
2018-03-02T07:23:05.117Z,13.97
2018-03-02T07:25:33.466Z,13.50
2018-03-02T07:28:01.874Z,14.73
2018-03-02T07:30:30.222Z,13.80
2018-03-02T07:32:58.578Z,12.80
2018-03-02T07:35:27.005Z,15.50
2018-03-02T07:37:55.931Z,16.08
2018-03-02T07:40:24.287Z,13.37
2018-03-02T07:42:52.609Z,14.10
2018-03-02T07:45:20.977Z,11.35
2018-03-02T07:47:49.293Z,16.83
2018-03-02T07:50:17.641Z,14.77
2018-03-02T07:52:45.997Z,16.23
2018-03-02T07:55:14.352Z,14.80
2018-03-02T07:57:43.581Z,14.77
2018-03-02T08:00:11.942Z,12.17
2018-03-02T08:02:40.287Z,15.33
2018-03-02T08:05:08.620Z,16.03
2018-03-02T08:07:37.003Z,15.13
2018-03-02T08:10:05.329Z,14.77
2018-03-02T08:12:33.678Z,16.10
2018-03-02T08:15:02.061Z,15.33
2018-03-02T08:17:31.261Z,13.50
2018-03-02T08:19:59.638Z,14.27
2018-03-02T08:22:27.991Z,12.97
2018-03-02T08:24:56.313Z,14.90
2018-03-02T08:27:24.670Z,14.40
2018-03-02T08:29:53.229Z,10.27
2018-03-02T08:32:21.729Z,13.50
2018-03-02T08:34:50.058Z,16.77
2018-03-02T08:37:18.898Z,12.73
2018-03-02T08:39:47.279Z,16.37
2018-03-02T08:42:15.626Z,11.10
2018-03-02T08:44:43.950Z,14.80
2018-03-02T08:47:12.299Z,13.70
2018-03-02T08:49:40.677Z,13.15
2018-03-02T08:52:09.031Z,14.43
2018-03-02T08:54:37.433Z,14.60
2018-03-02T08:57:05.810Z,14.60
2018-03-02T08:59:34.181Z,15.05
2018-03-02T09:02:02.522Z,17.20
2018-03-02T09:04:30.863Z,16.50
2018-03-02T09:06:59.217Z,16.37
2018-03-02T09:09:27.550Z,17.17
2018-03-02T09:11:55.974Z,16.30
2018-03-02T09:14:24.345Z,16.87
2018-03-02T09:16:52.693Z,15.10
2018-03-02T09:19:21.023Z,17.23
2018-03-02T09:21:49.377Z,14.30
2018-03-02T09:24:17.754Z,15.88
2018-03-02T09:26:46.143Z,15.13
2018-03-02T09:29:14.543Z,16.20
2018-03-02T09:31:42.890Z,16.97
2018-03-02T09:34:11.218Z,16.50
2018-03-02T09:36:39.641Z,17.73
2018-03-02T09:39:07.966Z,19.23
2018-03-02T09:41:36.343Z,18.03
2018-03-02T09:44:04.678Z,16.60
2018-03-02T09:46:34.006Z,18.97
2018-03-02T09:49:02.345Z,19.55
2018-03-02T09:51:30.706Z,15.37
2018-03-02T09:53:59.020Z,19.40
2018-03-02T09:56:28.281Z,17.80
2018-03-02T09:58:56.673Z,20.97
2018-03-02T10:01:25.051Z,18.77
2018-03-02T10:03:53.430Z,18.10
2018-03-02T10:06:21.819Z,21.23
2018-03-02T10:08:50.150Z,16.23
2018-03-02T10:11:18.585Z,19.17
2018-03-02T10:13:46.967Z,17.60
2018-03-02T10:16:16.197Z,21.50
2018-03-02T10:18:44.558Z,21.10
2018-03-02T10:21:12.901Z,20.67
2018-03-02T10:23:41.250Z,21.03
2018-03-02T10:26:09.577Z,19.20
2018-03-02T10:28:37.932Z,19.13
2018-03-02T10:31:06.258Z,21.20
2018-03-02T10:33:34.609Z,22.00
2018-03-02T10:36:02.953Z,21.67
2018-03-02T10:38:31.321Z,19.97
2018-03-02T10:40:59.659Z,23.27
2018-03-02T10:43:28.089Z,20.80
2018-03-02T10:45:56.842Z,22.90
2018-03-02T10:48:25.297Z,23.35
2018-03-02T10:50:55.034Z,20.23
2018-03-02T10:53:29.458Z,20.50
2018-03-02T10:55:58.780Z,21.40
2018-03-02T10:58:27.122Z,21.40
2018-03-02T11:00:55.466Z,22.23
2018-03-02T11:03:23.803Z,23.30
2018-03-02T11:05:52.205Z,21.80
2018-03-02T11:08:20.557Z,21.75
2018-03-02T11:10:48.900Z,23.10
2018-03-02T11:13:17.374Z,23.60
2018-03-02T11:15:45.701Z,23.60
2018-03-02T11:18:14.113Z,22.40
2018-03-02T11:20:42.470Z,20.10
2018-03-02T11:23:10.829Z,21.30
2018-03-02T11:25:39.158Z,21.37
2018-03-02T11:28:07.695Z,19.40
2018-03-02T11:30:36.133Z,20.27
2018-03-02T11:33:04.723Z,19.27
2018-03-02T11:35:33.096Z,21.40
2018-03-02T11:38:01.405Z,20.60
2018-03-02T11:40:29.738Z,20.65
2018-03-02T11:42:58.183Z,20.10
2018-03-02T11:45:26.511Z,21.27
2018-03-02T11:47:54.931Z,19.80
2018-03-02T11:50:23.318Z,20.30
2018-03-02T11:52:51.719Z,21.80
2018-03-02T11:55:20.049Z,20.98
2018-03-02T11:57:48.442Z,22.80
2018-03-02T12:00:16.820Z,23.30
2018-03-02T12:02:45.168Z,20.20
2018-03-02T12:05:13.498Z,21.63
2018-03-02T12:07:41.949Z,19.87
2018-03-02T12:10:10.282Z,19.17
2018-03-02T12:12:39.165Z,20.33
2018-03-02T12:15:07.590Z,20.23
2018-03-02T12:17:35.966Z,23.30
2018-03-02T12:20:04.298Z,20.07
2018-03-02T12:22:32.731Z,19.80
2018-03-02T12:25:01.082Z,19.75
2018-03-02T12:27:29.473Z,21.90
2018-03-02T12:29:57.830Z,19.60
2018-03-02T12:32:26.149Z,19.40
2018-03-02T12:34:54.605Z,19.37
2018-03-02T12:37:22.934Z,19.63
2018-03-02T12:39:51.280Z,19.50
2018-03-02T12:42:19.739Z,22.75
2018-03-02T12:44:48.121Z,17.27
2018-03-02T12:47:16.599Z,19.17
2018-03-02T12:49:44.975Z,20.60
2018-03-02T12:52:13.502Z,20.10
2018-03-02T12:54:41.895Z,18.67
2018-03-02T12:57:10.246Z,19.73
2018-03-02T12:59:38.692Z,17.62
2018-03-02T13:02:07.021Z,21.83
2018-03-02T13:04:35.423Z,22.20
2018-03-02T13:07:03.761Z,17.73
2018-03-02T13:09:32.155Z,18.80
2018-03-02T13:12:00.481Z,19.33
2018-03-02T13:14:28.837Z,17.62
2018-03-02T13:16:57.205Z,20.50
2018-03-02T13:19:25.550Z,20.53
2018-03-02T13:21:53.897Z,18.02
2018-03-02T13:24:22.276Z,19.80
2018-03-02T13:27:02.391Z,19.83
2018-03-02T13:29:30.745Z,18.50
2018-03-02T13:31:59.277Z,19.98
2018-03-02T13:34:39.558Z,17.77
2018-03-02T13:37:07.904Z,16.80
2018-03-02T13:39:48.070Z,20.00
2018-03-02T13:42:16.442Z,18.13
2018-03-02T13:44:45.726Z,19.93
2018-03-02T13:47:14.109Z,20.20
2018-03-02T13:52:42.193Z,20.12
2018-03-02T13:55:10.554Z,20.20
2018-03-02T13:57:50.774Z,19.37
2018-03-02T14:00:19.161Z,21.33
2018-03-02T14:02:59.570Z,22.37
2018-03-02T14:05:27.924Z,20.53
2018-03-02T14:07:56.249Z,21.40
2018-03-02T14:10:24.595Z,22.17
2018-03-02T14:12:53.015Z,21.27
2018-03-02T14:15:21.500Z,22.03
2018-03-02T14:17:49.926Z,18.10
2018-03-02T14:20:18.283Z,23.03
2018-03-02T14:22:46.698Z,20.02
2018-03-02T14:25:15.045Z,20.50
2018-03-02T14:27:43.757Z,21.80
2018-03-02T14:30:12.097Z,20.40
2018-03-02T14:32:40.514Z,19.80
2018-03-02T14:35:08.874Z,21.10
2018-03-02T14:37:37.208Z,20.20
2018-03-02T14:40:05.634Z,20.62
2018-03-02T14:42:34.019Z,21.93
2018-03-02T14:45:02.386Z,19.60
2018-03-02T14:47:30.724Z,22.33
2018-03-02T14:49:59.065Z,20.93
2018-03-02T14:52:27.398Z,20.17
2018-03-02T14:54:55.790Z,21.37
2018-03-02T14:57:24.127Z,22.00
2018-03-02T14:59:52.557Z,20.73
2018-03-02T15:02:20.943Z,24.23
2018-03-02T15:04:49.282Z,21.10
2018-03-02T15:07:17.631Z,21.80
2018-03-02T15:09:46.369Z,22.13
2018-03-02T15:12:14.707Z,22.30
2018-03-02T15:14:43.050Z,21.90
2018-03-02T15:17:11.386Z,21.92
2018-03-02T15:19:39.738Z,25.30
2018-03-02T15:22:08.103Z,24.10
2018-03-02T15:24:36.468Z,20.15
2018-03-02T15:27:05.802Z,22.03
2018-03-02T15:29:34.155Z,20.47
2018-03-02T15:32:02.486Z,21.53
2018-03-02T15:34:30.842Z,21.13
2018-03-02T15:36:59.168Z,21.97
2018-03-02T15:39:27.537Z,21.27
2018-03-02T15:41:55.890Z,21.07
2018-03-02T15:44:24.244Z,21.48
2018-03-02T15:46:52.613Z,20.50
2018-03-02T15:49:20.950Z,21.20
2018-03-02T15:51:49.297Z,22.40
2018-03-02T15:54:17.630Z,18.47
2018-03-02T15:56:46.001Z,24.50
2018-03-02T15:59:14.318Z,20.20
2018-03-02T16:01:42.677Z,22.00
2018-03-02T16:04:11.000Z,20.50
2018-03-02T16:06:39.354Z,22.43
2018-03-02T16:09:08.598Z,24.08
2018-03-02T16:11:36.968Z,25.97
2018-03-02T16:14:05.306Z,20.90
2018-03-02T16:16:33.710Z,21.98
2018-03-02T16:19:02.043Z,21.12
2018-03-02T16:21:30.414Z,20.60
2018-03-02T16:23:58.767Z,20.27
2018-03-02T16:26:27.150Z,20.10
2018-03-02T16:28:55.474Z,18.83
2018-03-02T16:31:23.822Z,19.95
2018-03-02T16:33:52.152Z,20.50
2018-03-02T16:36:20.498Z,21.23
2018-03-02T16:38:48.830Z,19.90
2018-03-02T16:41:17.190Z,21.83
2018-03-02T16:43:45.538Z,20.83
2018-03-02T16:46:13.881Z,19.83
2018-03-02T16:48:42.224Z,21.60
2018-03-02T16:51:10.571Z,21.25
2018-03-02T16:53:38.910Z,20.87
2018-03-02T16:56:07.258Z,22.70
2018-03-02T16:58:35.594Z,20.77
2018-03-02T17:01:03.951Z,22.10
2018-03-02T17:03:32.284Z,19.62
2018-03-02T17:06:02.026Z,21.95
2018-03-02T17:08:30.363Z,20.97
2018-03-02T17:10:58.702Z,22.57
2018-03-02T17:13:27.160Z,24.10
2018-03-02T17:15:55.499Z,20.67
2018-03-02T17:18:24.611Z,21.12
2018-03-02T17:20:52.962Z,20.87
2018-03-02T17:23:21.349Z,20.27
2018-03-02T17:25:49.674Z,21.12
2018-03-02T17:28:18.002Z,19.37
2018-03-02T17:30:46.357Z,19.43
2018-03-02T17:33:14.778Z,19.40
2018-03-02T17:35:43.113Z,20.60
2018-03-02T17:38:11.442Z,18.98
2018-03-02T17:40:39.797Z,19.20
2018-03-02T17:43:08.145Z,17.17
2018-03-02T17:45:36.538Z,20.07
2018-03-02T17:48:04.866Z,18.40
2018-03-02T17:50:33.189Z,16.47
2018-03-02T17:53:01.556Z,20.47
2018-03-02T17:55:29.890Z,19.60
2018-03-02T17:57:58.303Z,18.12
2018-03-02T18:00:26.627Z,18.47
2018-03-02T18:02:54.973Z,21.03
2018-03-02T18:05:23.311Z,19.47
2018-03-02T18:07:51.661Z,18.27
2018-03-02T18:10:19.995Z,16.50
2018-03-02T18:12:48.346Z,19.95
2018-03-02T18:15:16.679Z,18.63
2018-03-02T18:17:45.030Z,17.08
2018-03-02T18:20:16.574Z,16.27
2018-03-02T18:22:45.012Z,19.27
2018-03-02T18:25:13.347Z,17.60
2018-03-02T18:27:41.762Z,17.02
2018-03-02T18:30:10.095Z,19.70
2018-03-02T18:32:38.438Z,16.77
2018-03-02T18:35:06.776Z,18.77
2018-03-02T18:37:35.130Z,17.40
2018-03-02T18:40:03.470Z,16.80
2018-03-02T18:42:31.970Z,16.45
2018-03-02T18:45:00.310Z,14.25
2018-03-02T18:47:28.667Z,15.67
2018-03-02T18:49:57.007Z,17.77
2018-03-02T18:52:25.474Z,16.05
2018-03-02T18:54:53.802Z,14.32
2018-03-02T18:57:22.151Z,15.20
2018-03-02T18:59:50.487Z,18.90
2018-03-02T19:02:18.833Z,15.37
2018-03-02T19:04:47.183Z,14.20
2018-03-02T19:07:15.529Z,17.17
2018-03-02T19:09:43.852Z,15.93
2018-03-02T19:12:12.197Z,15.53
2018-03-02T19:14:40.554Z,15.40
2018-03-02T19:17:09.480Z,16.20
2018-03-02T19:19:37.813Z,15.10
2018-03-02T19:22:06.319Z,15.40
2018-03-02T19:24:34.659Z,15.82
2018-03-02T19:27:03.022Z,16.10
2018-03-02T19:29:31.452Z,15.70
2018-03-02T19:31:59.794Z,17.23
2018-03-02T19:34:28.132Z,15.90
2018-03-02T19:36:58.098Z,15.02
2018-03-02T19:39:26.421Z,16.10
2018-03-02T19:41:54.782Z,14.80
2018-03-02T19:44:23.130Z,15.38
2018-03-02T19:46:51.488Z,12.53
2018-03-02T19:49:19.821Z,13.30
2018-03-02T19:51:48.177Z,14.68
2018-03-02T19:54:16.521Z,13.53
2018-03-02T19:56:44.869Z,13.80
2018-03-02T19:59:13.206Z,14.43
2018-03-02T20:01:41.534Z,14.13
2018-03-02T20:04:09.881Z,14.32
2018-03-02T20:06:38.207Z,12.67
2018-03-02T20:09:06.555Z,12.57
2018-03-02T20:11:34.903Z,15.57
2018-03-02T20:14:03.267Z,14.20
2018-03-02T20:16:31.595Z,12.87
2018-03-02T20:18:59.954Z,15.15
2018-03-02T20:21:28.284Z,13.33
2018-03-02T20:23:56.672Z,13.77
2018-03-02T20:26:25.000Z,16.42
2018-03-02T20:28:53.350Z,13.07
2018-03-02T20:31:21.688Z,13.77
2018-03-02T20:33:50.082Z,13.25
2018-03-02T20:36:18.455Z,13.70
2018-03-02T20:38:46.790Z,12.37
2018-03-02T20:41:15.134Z,14.35
2018-03-02T20:43:43.558Z,12.30
2018-03-02T20:46:11.894Z,13.30
2018-03-02T20:48:40.259Z,13.55
2018-03-02T20:51:08.590Z,13.20
2018-03-02T20:53:36.937Z,13.75
2018-03-02T20:56:05.269Z,12.63
2018-03-02T20:58:33.623Z,14.93
2018-03-02T21:01:01.946Z,13.85
2018-03-02T21:03:30.301Z,13.70
2018-03-02T21:05:59.610Z,15.20
2018-03-02T21:08:27.971Z,14.90
2018-03-02T21:10:56.303Z,13.02
2018-03-02T21:13:24.655Z,14.57
2018-03-02T21:15:52.981Z,11.27
2018-03-02T21:18:21.329Z,13.00
2018-03-02T21:20:49.665Z,12.82
2018-03-02T21:23:18.018Z,14.87
2018-03-02T21:25:46.346Z,14.30
2018-03-02T21:28:14.716Z,15.25
2018-03-02T21:30:43.024Z,14.80
2018-03-02T21:33:11.405Z,14.23
2018-03-02T21:35:39.706Z,13.57
2018-03-02T21:38:08.062Z,14.10
2018-03-02T21:40:36.391Z,15.20
2018-03-02T21:43:04.738Z,16.20
2018-03-02T21:45:33.073Z,13.67
2018-03-02T21:48:01.422Z,16.27
2018-03-02T21:50:29.804Z,14.05
2018-03-02T21:52:58.090Z,12.93
2018-03-02T21:55:26.438Z,14.83
2018-03-02T21:57:54.766Z,13.97
2018-03-02T22:00:23.186Z,14.02
2018-03-02T22:02:51.551Z,14.93
2018-03-02T22:05:19.894Z,12.30
2018-03-02T22:07:48.222Z,14.93
2018-03-02T22:10:16.589Z,15.27
2018-03-02T22:12:44.909Z,14.57
2018-03-02T22:15:13.258Z,13.52
2018-03-02T22:17:41.608Z,15.30
2018-03-02T22:20:09.942Z,15.57
2018-03-02T22:22:38.280Z,13.77
2018-03-02T22:25:06.642Z,14.57
2018-03-02T22:27:34.973Z,13.85
2018-03-02T22:30:03.323Z,16.50
2018-03-02T22:32:31.653Z,14.80
2018-03-02T22:35:00.002Z,13.77
2018-03-02T22:37:28.331Z,14.60
2018-03-02T22:39:56.683Z,14.13
2018-03-02T22:42:25.016Z,12.98
2018-03-02T22:44:53.372Z,13.57
2018-03-02T22:47:21.698Z,14.95
2018-03-02T22:49:50.061Z,12.50
2018-03-02T22:52:19.290Z,14.18
2018-03-02T22:54:47.633Z,12.60
2018-03-02T22:57:15.965Z,15.07
2018-03-02T22:59:44.321Z,13.57
2018-03-02T23:02:12.655Z,13.57
2018-03-02T23:04:41.014Z,15.43
2018-03-02T23:07:09.337Z,15.00
2018-03-02T23:09:37.759Z,12.97
2018-03-02T23:12:06.120Z,11.73
2018-03-02T23:14:34.450Z,12.85
2018-03-02T23:17:02.774Z,12.93
2018-03-02T23:19:31.121Z,13.80
2018-03-02T23:21:59.448Z,12.55
2018-03-02T23:24:27.794Z,11.90
2018-03-02T23:26:56.119Z,15.60
2018-03-02T23:29:24.466Z,13.93
2018-03-02T23:31:52.781Z,13.30
2018-03-02T23:34:21.135Z,13.60
2018-03-02T23:36:49.460Z,13.80
2018-03-02T23:39:17.806Z,13.40
2018-03-02T23:41:46.127Z,14.45
2018-03-02T23:44:14.469Z,15.45
2018-03-02T23:46:42.793Z,14.80
2018-03-02T23:49:11.142Z,14.52
2018-03-02T23:51:39.470Z,14.48
2018-03-02T23:54:07.826Z,14.48
2018-03-02T23:56:36.150Z,14.20
2018-03-02T23:59:04.474Z,15.57
